Terminal Aerodrome Forecast
Issued by NWS Oklahoma City, OK

Home | Current Version | Previous Version | Text Only | Print | Product List | Glossary On
Versions: 1 2 3 4 5 6 7 8 9 10 11 12
000
FTUS44 KOUN 110527
TAFOUN
TAF
KOUN 110527Z 1106/1206 18019G25KT P6SM OVC025
     FM110800 19019G25KT 4SM BR OVC009
     FM111600 22015KT P6SM OVC012
     FM112100 32012KT P6SM BKN025
     FM120000 36014KT P6SM OVC250=

USA.gov is the U.S. government's official web portal to all federal, state and local government web resources and services.